createdAt,value
2023-05-12T00:00:53.433Z,100.67
2023-05-12T00:03:21.598Z,99.80
2023-05-12T00:05:49.798Z,100.00
2023-05-12T00:08:17.928Z,100.00
2023-05-12T00:10:46.213Z,98.23
2023-05-12T00:13:15.865Z,99.50
2023-05-12T00:15:43.805Z,100.37
2023-05-12T00:18:11.878Z,99.57
2023-05-12T00:20:39.932Z,99.10
2023-05-12T00:23:08.091Z,99.37
2023-05-12T00:25:36.417Z,100.53
2023-05-12T00:28:04.569Z,102.67
2023-05-12T00:30:33.995Z,100.43
2023-05-12T00:33:02.136Z,102.67
2023-05-12T00:35:30.394Z,101.97
2023-05-12T00:37:58.498Z,102.20
2023-05-12T00:40:26.610Z,102.20
2023-05-12T00:42:54.664Z,102.37
2023-05-12T00:45:23.783Z,103.30
2023-05-12T00:47:53.972Z,104.40
2023-05-12T00:50:22.362Z,105.07
2023-05-12T00:52:51.117Z,104.93
2023-05-12T00:55:19.574Z,105.87
2023-05-12T00:57:47.755Z,107.03
2023-05-12T01:00:16.259Z,107.83
2023-05-12T01:02:44.605Z,105.63
2023-05-12T01:05:14.685Z,103.70
2023-05-12T01:07:43.727Z,105.07
2023-05-12T01:10:22.160Z,106.17
2023-05-12T01:12:50.406Z,108.10
2023-05-12T01:15:18.956Z,107.87
2023-05-12T01:17:53.724Z,109.20
2023-05-12T01:20:26.435Z,102.83
2023-05-12T01:22:55.786Z,104.77
2023-05-12T01:25:24.889Z,107.10
2023-05-12T01:27:54.930Z,103.70
2023-05-12T01:30:24.548Z,107.17
2023-05-12T01:32:53.509Z,109.37
2023-05-12T01:35:21.825Z,109.67
2023-05-12T01:37:49.982Z,108.80
2023-05-12T01:40:18.365Z,110.77
2023-05-12T01:42:46.563Z,113.73
2023-05-12T01:45:16.081Z,111.47
2023-05-12T01:47:44.180Z,111.00
2023-05-12T01:50:12.332Z,111.40
2023-05-12T01:52:40.512Z,109.10
2023-05-12T01:55:09.127Z,110.10
2023-05-12T01:57:37.136Z,113.23
2023-05-12T02:00:06.047Z,113.30
2023-05-12T02:02:35.578Z,111.43
2023-05-12T02:05:03.719Z,112.30
2023-05-12T02:07:31.839Z,109.73
2023-05-12T02:09:59.859Z,113.60
2023-05-12T02:12:27.992Z,113.70
2023-05-12T02:14:56.193Z,112.77
2023-05-12T02:17:25.160Z,114.70
2023-05-12T02:19:54.764Z,110.97
2023-05-12T02:22:22.853Z,112.80
2023-05-12T02:24:51.013Z,111.87
2023-05-12T02:27:19.139Z,111.10
2023-05-12T02:29:47.338Z,113.57
2023-05-12T02:32:15.417Z,111.10
2023-05-12T02:34:43.464Z,110.40
2023-05-12T02:37:12.887Z,110.40
2023-05-12T02:39:40.928Z,109.07
2023-05-12T02:42:09.357Z,112.93
2023-05-12T02:44:37.546Z,112.83
2023-05-12T02:47:06.113Z,113.97
2023-05-12T02:49:34.145Z,110.00
2023-05-12T02:52:02.244Z,116.70
2023-05-12T02:54:31.779Z,115.47
2023-05-12T02:56:59.928Z,115.20
2023-05-12T02:59:28.799Z,112.87
2023-05-12T03:01:57.094Z,113.50
2023-05-12T03:04:25.213Z,108.83
2023-05-12T03:06:53.429Z,115.60
2023-05-12T03:09:21.584Z,114.77
2023-05-12T03:11:51.065Z,109.37
2023-05-12T03:14:19.400Z,105.93
2023-05-12T03:16:47.720Z,109.93
2023-05-12T03:19:15.928Z,108.87
2023-05-12T03:21:44.082Z,111.53
2023-05-12T03:24:12.202Z,107.80
2023-05-12T03:26:41.075Z,115.50
2023-05-12T03:29:10.518Z,116.00
2023-05-12T03:31:38.753Z,114.13
2023-05-12T03:34:06.950Z,112.50
2023-05-12T03:36:35.158Z,115.30
2023-05-12T03:39:03.520Z,113.67
2023-05-12T03:41:31.650Z,111.97
2023-05-12T03:43:59.981Z,118.77
2023-05-12T03:46:29.428Z,115.90
2023-05-12T03:48:57.526Z,114.80
2023-05-12T03:51:25.673Z,113.13
2023-05-12T03:53:55.957Z,111.90
2023-05-12T03:56:24.511Z,115.30
2023-05-12T03:58:52.640Z,119.67
2023-05-12T04:01:20.803Z,108.50
2023-05-12T04:03:50.480Z,109.27
2023-05-12T04:06:18.706Z,107.03
2023-05-12T04:08:46.806Z,109.07
2023-05-12T04:11:15.115Z,108.07
2023-05-12T04:13:43.156Z,107.50
2023-05-12T04:16:11.464Z,115.37
2023-05-12T04:18:39.661Z,114.27
2023-05-12T04:21:09.156Z,116.33
2023-05-12T04:23:37.268Z,117.03
2023-05-12T04:26:06.028Z,109.27
2023-05-12T04:28:34.147Z,112.73
2023-05-12T04:31:04.373Z,112.33
2023-05-12T04:33:32.618Z,111.03
2023-05-12T04:36:00.871Z,108.63
2023-05-12T04:38:30.438Z,108.60
2023-05-12T04:41:01.656Z,114.53
2023-05-12T04:46:01.482Z,109.43
2023-05-12T04:48:29.956Z,110.93
2023-05-12T04:50:59.926Z,110.47
2023-05-12T04:53:28.078Z,113.67
2023-05-12T04:55:57.484Z,108.10
2023-05-12T04:58:25.648Z,109.07
2023-05-12T05:00:54.138Z,108.47
2023-05-12T05:03:22.751Z,110.20
2023-05-12T05:05:50.884Z,112.00
2023-05-12T05:08:19.044Z,110.70
2023-05-12T05:10:47.233Z,109.90
2023-05-12T05:13:16.718Z,110.70
2023-05-12T05:15:51.433Z,100.43
2023-05-12T05:18:21.119Z,104.90
2023-05-12T05:20:57.878Z,104.57
2023-05-12T05:23:27.271Z,106.10
2023-05-12T05:25:55.470Z,109.90
2023-05-12T05:28:24.887Z,109.53
2023-05-12T05:30:53.611Z,111.77
2023-05-12T05:33:21.706Z,115.17
2023-05-12T05:35:51.121Z,120.10
2023-05-12T05:38:19.326Z,117.70
2023-05-12T05:40:53.665Z,118.70
2023-05-12T05:43:24.262Z,111.23
2023-05-12T05:45:52.765Z,110.67
2023-05-12T05:48:20.947Z,109.70
2023-05-12T05:50:49.469Z,112.93
2023-05-12T05:53:18.413Z,119.40
2023-05-12T05:55:47.068Z,117.80
2023-05-12T05:58:15.223Z,113.83
2023-05-12T06:00:44.984Z,115.03
2023-05-12T06:03:13.162Z,115.47
2023-05-12T06:05:43.118Z,114.63
2023-05-12T06:08:13.421Z,113.87
2023-05-12T06:10:42.099Z,109.40
2023-05-12T06:13:10.743Z,110.60
2023-05-12T06:15:38.706Z,103.60
2023-05-12T06:18:08.232Z,109.07
2023-05-12T06:20:36.450Z,104.63
2023-05-12T06:23:04.635Z,99.63
2023-05-12T06:25:33.486Z,100.20
2023-05-12T06:28:01.699Z,94.87
2023-05-12T06:30:29.775Z,96.40
2023-05-12T06:32:57.901Z,96.77
2023-05-12T06:35:27.549Z,91.20
2023-05-12T06:37:56.022Z,94.93
2023-05-12T06:40:24.098Z,95.03
2023-05-12T06:42:52.312Z,90.00
2023-05-12T06:45:21.327Z,87.50
2023-05-12T06:47:49.701Z,86.10
2023-05-12T06:50:18.059Z,85.97
2023-05-12T06:52:47.630Z,79.43
2023-05-12T06:55:19.830Z,75.57
2023-05-12T06:57:48.083Z,78.50
2023-05-12T07:00:16.787Z,71.00
2023-05-12T07:02:44.892Z,60.90
2023-05-12T07:05:13.301Z,68.17
2023-05-12T07:07:41.702Z,60.70
2023-05-12T07:10:11.819Z,60.83
2023-05-12T07:12:40.119Z,57.13
2023-05-12T07:15:09.634Z,52.13
2023-05-12T07:17:37.858Z,54.97
2023-05-12T07:20:07.162Z,53.20
2023-05-12T07:22:38.482Z,51.57
2023-05-12T07:25:08.041Z,51.00
2023-05-12T07:27:37.595Z,48.33
2023-05-12T07:30:06.962Z,50.10
2023-05-12T07:32:35.198Z,53.70
2023-05-12T07:35:03.664Z,53.27
2023-05-12T07:37:31.921Z,54.43
2023-05-12T07:40:00.036Z,56.17
2023-05-12T07:42:28.197Z,51.30
2023-05-12T07:44:57.692Z,52.23
2023-05-12T07:47:25.787Z,46.07
2023-05-12T07:49:53.896Z,38.13
2023-05-12T07:52:22.024Z,34.10
2023-05-12T07:54:50.185Z,32.07
2023-05-12T07:57:19.256Z,28.63
2023-05-12T07:59:47.329Z,28.37
2023-05-12T08:02:17.630Z,25.70
2023-05-12T08:04:45.724Z,27.50
2023-05-12T08:07:13.754Z,24.27
2023-05-12T08:09:41.865Z,24.63
2023-05-12T08:12:10.222Z,22.93
2023-05-12T08:14:38.706Z,24.97
2023-05-12T08:17:06.903Z,20.63
2023-05-12T08:19:36.438Z,21.13
2023-05-12T08:22:04.741Z,22.07
2023-05-12T08:24:32.921Z,23.00
2023-05-12T08:27:01.005Z,22.23
2023-05-12T08:29:29.128Z,21.00
2023-05-12T08:31:58.164Z,20.20
2023-05-12T08:34:26.700Z,20.10
2023-05-12T08:36:56.678Z,20.10
2023-05-12T08:39:24.920Z,21.20
2023-05-12T08:42:03.389Z,19.57
2023-05-12T08:44:32.050Z,19.67
2023-05-12T08:47:02.912Z,18.47
2023-05-12T08:49:33.127Z,19.00
2023-05-12T08:52:04.373Z,18.90
2023-05-12T08:54:36.016Z,19.40
2023-05-12T08:57:10.436Z,18.17
2023-05-12T08:59:40.360Z,18.20
2023-05-12T09:02:10.486Z,18.10
2023-05-12T09:04:39.351Z,18.10
2023-05-12T09:07:09.633Z,18.03
2023-05-12T09:09:42.937Z,17.73
2023-05-12T09:12:16.751Z,17.60
2023-05-12T09:14:47.263Z,17.47
2023-05-12T09:17:15.476Z,17.73
2023-05-12T09:19:43.635Z,17.33
2023-05-12T09:22:14.938Z,17.73
2023-05-12T09:24:44.206Z,17.40
2023-05-12T09:27:12.542Z,17.40
2023-05-12T09:29:58.966Z,17.57
2023-05-12T09:32:36.136Z,17.67
2023-05-12T09:35:06.440Z,17.70
2023-05-12T09:37:37.009Z,17.63
2023-05-12T09:40:07.329Z,17.67
2023-05-12T09:42:36.657Z,17.63
2023-05-12T09:45:05.861Z,17.97
2023-05-12T09:47:38.124Z,18.30
2023-05-12T09:50:08.195Z,17.37
2023-05-12T09:52:39.928Z,17.27
2023-05-12T09:55:10.615Z,17.80
2023-05-12T09:57:41.717Z,17.37
2023-05-12T10:00:31.380Z,17.30
2023-05-12T10:03:06.487Z,17.80
2023-05-12T10:05:36.817Z,17.60
2023-05-12T10:08:08.455Z,18.23
2023-05-12T10:10:36.908Z,17.70
2023-05-12T10:13:05.748Z,17.97
2023-05-12T10:15:35.423Z,17.90
2023-05-12T10:18:03.902Z,17.93
2023-05-12T10:20:33.356Z,17.97
2023-05-12T10:23:02.956Z,17.90
2023-05-12T10:25:34.200Z,18.23
2023-05-12T10:28:03.936Z,17.87
2023-05-12T10:30:32.737Z,18.23
2023-05-12T10:33:02.039Z,17.97
2023-05-12T10:35:34.583Z,18.00
2023-05-12T10:38:04.364Z,17.77
2023-05-12T10:40:34.300Z,18.77
2023-05-12T10:43:02.685Z,17.70
2023-05-12T10:45:36.690Z,17.70
2023-05-12T10:48:09.155Z,17.93
2023-05-12T10:50:37.342Z,17.80
2023-05-12T10:53:05.447Z,18.70
2023-05-12T10:55:37.935Z,18.00
2023-05-12T10:58:08.679Z,18.07
2023-05-12T11:00:45.830Z,18.40
2023-05-12T11:03:17.384Z,18.70
2023-05-12T11:05:47.231Z,18.70
2023-05-12T11:08:18.033Z,18.40
2023-05-12T11:10:51.326Z,17.80
2023-05-12T11:13:20.440Z,17.77
2023-05-12T11:15:49.151Z,17.53
2023-05-12T11:18:21.700Z,17.87
2023-05-12T11:20:51.484Z,17.87
2023-05-12T11:23:27.312Z,17.47
2023-05-12T11:25:57.258Z,17.33
2023-05-12T11:28:25.546Z,18.10
2023-05-12T11:30:55.414Z,17.67
2023-05-12T11:33:24.605Z,17.37
2023-05-12T11:35:53.093Z,17.77
2023-05-12T11:38:24.409Z,18.10
2023-05-12T11:40:52.545Z,17.97
2023-05-12T11:43:23.196Z,17.80
2023-05-12T11:45:51.503Z,17.80
2023-05-12T11:48:19.736Z,17.80
2023-05-12T11:50:48.218Z,17.40
2023-05-12T11:53:18.726Z,17.77
2023-05-12T11:55:51.318Z,17.17
2023-05-12T11:58:26.613Z,17.50
2023-05-12T12:00:57.112Z,17.63
2023-05-12T12:03:26.143Z,17.63
2023-05-12T12:06:02.157Z,17.57
2023-05-12T12:08:30.984Z,17.83
2023-05-12T12:11:01.337Z,18.00
2023-05-12T12:13:32.583Z,17.70
2023-05-12T12:16:00.801Z,18.40
2023-05-12T12:18:29.712Z,18.17
2023-05-12T12:20:58.378Z,17.37
2023-05-12T12:23:26.807Z,18.20
2023-05-12T12:25:55.205Z,17.80
2023-05-12T12:28:23.318Z,17.90
2023-05-12T12:30:53.086Z,17.30
2023-05-12T12:33:21.394Z,18.27
2023-05-12T12:35:49.594Z,17.43
2023-05-12T12:38:17.916Z,17.90
2023-05-12T12:40:46.291Z,17.47
2023-05-12T12:43:14.874Z,17.23
2023-05-12T12:45:43.121Z,16.90
2023-05-12T12:48:12.688Z,17.03
2023-05-12T12:50:41.206Z,16.97
2023-05-12T12:53:09.805Z,17.40
2023-05-12T12:55:38.182Z,17.50
2023-05-12T12:58:06.367Z,17.20
2023-05-12T13:00:34.737Z,17.40
2023-05-12T13:03:03.197Z,17.40
2023-05-12T13:05:32.946Z,17.23
2023-05-12T13:08:01.295Z,17.30
2023-05-12T13:10:29.437Z,17.60
2023-05-12T13:12:57.536Z,17.50
2023-05-12T13:15:25.901Z,17.20
2023-05-12T13:17:54.179Z,17.37
2023-05-12T13:20:22.502Z,17.23
2023-05-12T13:22:52.265Z,17.33
2023-05-12T13:25:20.545Z,17.63
2023-05-12T13:27:49.256Z,18.17
2023-05-12T13:30:17.383Z,18.40
2023-05-12T13:32:46.871Z,17.90
2023-05-12T13:35:15.119Z,18.30
2023-05-12T13:37:43.623Z,17.87
2023-05-12T13:40:14.097Z,17.90
2023-05-12T13:42:42.182Z,17.93
2023-05-12T13:45:11.543Z,18.00
2023-05-12T13:47:40.229Z,18.57
2023-05-12T13:50:09.646Z,18.50
2023-05-12T13:52:38.042Z,17.87
2023-05-12T13:55:06.908Z,17.53
2023-05-12T13:57:36.612Z,17.53
2023-05-12T14:00:05.246Z,17.03
2023-05-12T14:02:34.273Z,17.40
2023-05-12T14:05:02.670Z,18.30
2023-05-12T14:07:31.101Z,18.37
2023-05-12T14:10:00.347Z,17.30
2023-05-12T14:12:28.696Z,17.37
2023-05-12T14:15:11.197Z,17.60
2023-05-12T14:17:47.910Z,17.30
2023-05-12T14:20:16.145Z,17.40
2023-05-12T14:22:44.205Z,17.50
2023-05-12T14:25:12.321Z,17.77
2023-05-12T14:27:40.637Z,17.30
2023-05-12T14:30:11.532Z,17.47
2023-05-12T14:32:39.825Z,17.37
2023-05-12T14:35:09.511Z,17.30
2023-05-12T14:37:37.728Z,17.13
2023-05-12T14:40:07.273Z,17.17
2023-05-12T14:42:35.527Z,17.27
2023-05-12T14:45:03.789Z,17.30
2023-05-12T14:47:33.564Z,19.03
2023-05-12T14:50:01.673Z,17.50
2023-05-12T14:52:29.804Z,17.60
2023-05-12T14:54:57.884Z,16.80
2023-05-12T14:57:26.103Z,17.20
2023-05-12T14:59:59.050Z,17.40
2023-05-12T15:02:29.526Z,17.03
2023-05-12T15:04:59.064Z,17.67
2023-05-12T15:07:27.565Z,17.70
2023-05-12T15:09:56.704Z,17.60
2023-05-12T15:12:24.907Z,16.57
2023-05-12T15:14:53.139Z,17.20
2023-05-12T15:17:21.298Z,17.00
2023-05-12T15:19:49.467Z,17.53
2023-05-12T15:22:18.964Z,17.40
2023-05-12T15:24:47.095Z,16.80
2023-05-12T15:27:15.347Z,18.33
2023-05-12T15:29:43.941Z,17.30
2023-05-12T15:32:12.037Z,17.33
2023-05-12T15:34:40.258Z,18.00
2023-05-12T15:37:08.496Z,17.60
2023-05-12T15:39:38.150Z,16.87
2023-05-12T15:42:07.419Z,17.90
2023-05-12T15:44:35.734Z,17.63
2023-05-12T15:47:04.395Z,17.87
2023-05-12T15:49:32.563Z,17.70
2023-05-12T15:52:03.986Z,17.93
2023-05-12T15:54:32.170Z,17.77
2023-05-12T15:57:01.788Z,17.23
2023-05-12T15:59:29.831Z,17.67
2023-05-12T16:01:58.478Z,17.33
2023-05-12T16:04:29.704Z,17.07
2023-05-12T16:06:57.882Z,17.17
2023-05-12T16:09:26.550Z,17.37
2023-05-12T16:11:54.917Z,17.17
2023-05-12T16:14:25.475Z,17.53
2023-05-12T16:16:53.634Z,17.60
2023-05-12T16:19:21.897Z,17.93
2023-05-12T16:21:50.216Z,24.83
2023-05-12T16:24:18.641Z,17.80
2023-05-12T16:26:47.220Z,17.77
2023-05-12T16:29:15.313Z,18.00
2023-05-12T16:31:44.753Z,17.63
2023-05-12T16:34:12.857Z,17.60
2023-05-12T16:36:41.049Z,17.50
2023-05-12T16:39:09.421Z,17.63
2023-05-12T16:41:37.571Z,17.60
2023-05-12T16:44:06.008Z,17.17
2023-05-12T16:46:34.136Z,16.80
2023-05-12T16:49:03.738Z,16.80
2023-05-12T16:51:32.951Z,17.10
2023-05-12T16:54:02.957Z,17.60
2023-05-12T16:56:31.059Z,17.30
2023-05-12T16:58:59.221Z,17.60
2023-05-12T17:01:27.605Z,17.67
2023-05-12T17:03:56.624Z,17.70
2023-05-12T17:06:26.499Z,17.57
2023-05-12T17:08:54.813Z,17.60
2023-05-12T17:11:24.642Z,18.43
2023-05-12T17:13:53.689Z,17.23
2023-05-12T17:16:21.855Z,17.10
2023-05-12T17:21:20.889Z,17.20
2023-05-12T17:23:50.644Z,16.87
2023-05-12T17:26:18.785Z,17.30
2023-05-12T17:28:47.563Z,17.93
2023-05-12T17:31:15.832Z,17.30
2023-05-12T17:33:43.883Z,17.57
2023-05-12T17:36:13.128Z,17.20
2023-05-12T17:38:41.992Z,16.80
2023-05-12T17:41:11.952Z,18.57
2023-05-12T17:43:40.052Z,16.90
2023-05-12T17:46:09.161Z,17.00
2023-05-12T17:48:38.587Z,16.37
2023-05-12T17:51:07.406Z,16.63
2023-05-12T17:53:35.626Z,18.03
2023-05-12T17:56:03.782Z,17.63
2023-05-12T17:58:33.050Z,16.83
2023-05-12T18:01:01.222Z,17.00
2023-05-12T18:03:29.429Z,16.80
2023-05-12T18:05:57.520Z,16.53
2023-05-12T18:08:27.210Z,16.90
2023-05-12T18:10:55.306Z,17.10
2023-05-12T18:13:23.402Z,16.70
2023-05-12T18:15:52.676Z,17.17
2023-05-12T18:18:20.817Z,17.57
2023-05-12T18:20:48.945Z,17.30
2023-05-12T18:23:17.033Z,17.53
2023-05-12T18:25:45.077Z,18.00
2023-05-12T18:28:13.135Z,17.20
2023-05-12T18:30:41.444Z,18.80
2023-05-12T18:33:10.932Z,19.17
2023-05-12T18:35:39.149Z,17.27
2023-05-12T18:38:07.207Z,16.93
2023-05-12T18:40:35.424Z,16.80
2023-05-12T18:43:03.523Z,16.80
2023-05-12T18:45:31.639Z,17.40
2023-05-12T18:47:59.705Z,16.87
2023-05-12T18:50:29.144Z,17.10
2023-05-12T18:52:57.601Z,17.10
2023-05-12T18:55:25.639Z,18.27
2023-05-12T18:57:54.129Z,18.67
2023-05-12T19:00:27.577Z,18.00
2023-05-12T19:02:55.712Z,17.60
2023-05-12T19:05:24.197Z,17.90
2023-05-12T19:07:53.793Z,18.63
2023-05-12T19:10:21.941Z,17.33
2023-05-12T19:12:50.986Z,17.47
2023-05-12T19:15:19.116Z,17.20
2023-05-12T19:17:47.432Z,18.63
2023-05-12T19:20:15.599Z,17.73
2023-05-12T19:22:44.092Z,18.27
2023-05-12T19:25:17.845Z,18.50
2023-05-12T19:27:46.705Z,19.20
2023-05-12T19:30:15.931Z,18.17
2023-05-12T19:32:46.054Z,18.70
2023-05-12T19:35:16.652Z,19.80
2023-05-12T19:37:44.871Z,20.27
2023-05-12T19:40:14.851Z,20.30
2023-05-12T19:42:42.953Z,21.00
2023-05-12T19:45:11.636Z,21.77
2023-05-12T19:47:40.368Z,22.63
2023-05-12T19:50:09.720Z,22.33
2023-05-12T19:52:39.151Z,22.90
2023-05-12T19:55:08.486Z,22.70
2023-05-12T19:57:38.255Z,23.47
2023-05-12T20:00:08.129Z,23.37
2023-05-12T20:02:36.769Z,24.07
2023-05-12T20:05:05.810Z,24.57
2023-05-12T20:07:33.948Z,24.63
2023-05-12T20:10:02.047Z,26.47
2023-05-12T20:12:30.481Z,26.60
2023-05-12T20:14:59.887Z,26.93
2023-05-12T20:17:28.440Z,27.57
2023-05-12T20:19:57.055Z,32.50
2023-05-12T20:22:25.469Z,32.03
2023-05-12T20:24:53.512Z,34.37
2023-05-12T20:27:21.651Z,31.87
2023-05-12T20:29:49.925Z,36.00
2023-05-12T20:32:19.408Z,35.53
2023-05-12T20:34:47.519Z,35.77
2023-05-12T20:37:15.761Z,36.90
2023-05-12T20:39:43.755Z,36.93
2023-05-12T20:42:11.869Z,37.17
2023-05-12T20:44:39.925Z,39.97
2023-05-12T20:47:08.786Z,42.90
2023-05-12T20:49:38.424Z,44.50
2023-05-12T20:52:07.773Z,44.80
2023-05-12T20:54:35.829Z,45.60
2023-05-12T20:57:04.133Z,46.53
2023-05-12T20:59:32.254Z,47.53
2023-05-12T21:02:00.335Z,48.53
2023-05-12T21:04:28.697Z,47.97
2023-05-12T21:06:58.122Z,48.87
2023-05-12T21:09:26.171Z,50.27
2023-05-12T21:11:54.295Z,51.10
2023-05-12T21:14:22.681Z,51.63
2023-05-12T21:16:50.759Z,50.87
2023-05-12T21:19:19.071Z,52.80
2023-05-12T21:21:47.152Z,52.97
2023-05-12T21:24:17.707Z,55.20
2023-05-12T21:26:46.157Z,55.00
2023-05-12T21:29:14.206Z,53.43
2023-05-12T21:31:42.337Z,54.20
2023-05-12T21:34:10.530Z,53.90
2023-05-12T21:36:38.529Z,54.40
2023-05-12T21:39:06.672Z,52.80
2023-05-12T21:41:38.363Z,51.03
2023-05-12T21:44:07.785Z,48.33
2023-05-12T21:46:37.487Z,50.53
2023-05-12T21:49:05.681Z,49.83
2023-05-12T21:51:33.755Z,49.00
2023-05-12T21:54:01.987Z,48.17
2023-05-12T21:56:30.128Z,49.23
2023-05-12T21:58:59.552Z,51.67
2023-05-12T22:01:27.610Z,50.60
2023-05-12T22:03:56.064Z,52.50
2023-05-12T22:06:24.157Z,39.70
2023-05-12T22:08:52.301Z,39.30
2023-05-12T22:11:21.209Z,42.27
2023-05-12T22:13:49.252Z,40.80
2023-05-12T22:16:21.750Z,40.37
2023-05-12T22:18:53.817Z,40.23
2023-05-12T22:21:21.994Z,42.30
2023-05-12T22:23:50.062Z,35.97
2023-05-12T22:26:18.130Z,37.97
2023-05-12T22:28:46.202Z,39.90
2023-05-12T22:31:14.304Z,39.83
2023-05-12T22:33:43.774Z,41.20
2023-05-12T22:36:11.906Z,35.60
2023-05-12T22:38:40.052Z,35.20
2023-05-12T22:41:08.178Z,33.40
2023-05-12T22:43:36.217Z,31.80
2023-05-12T22:46:05.869Z,29.60
2023-05-12T22:48:38.697Z,27.83
2023-05-12T22:51:08.692Z,29.17
2023-05-12T22:53:37.074Z,28.30
2023-05-12T22:56:05.309Z,28.33
2023-05-12T22:58:33.398Z,30.20
2023-05-12T23:01:02.171Z,25.77
2023-05-12T23:03:30.394Z,24.27
2023-05-12T23:05:58.544Z,24.50
2023-05-12T23:08:27.985Z,23.83
2023-05-12T23:10:56.037Z,25.33
2023-05-12T23:13:24.071Z,22.73
2023-05-12T23:15:51.951Z,22.50
2023-05-12T23:18:20.641Z,22.50
2023-05-12T23:20:48.757Z,21.93
2023-05-12T23:23:17.764Z,21.77
2023-05-12T23:25:47.696Z,21.77
2023-05-12T23:28:15.911Z,21.07
2023-05-12T23:30:43.966Z,21.67
2023-05-12T23:33:12.187Z,20.97
2023-05-12T23:35:40.304Z,20.03
2023-05-12T23:38:08.497Z,20.57
2023-05-12T23:40:39.143Z,20.43
2023-05-12T23:43:09.236Z,19.60
2023-05-12T23:45:37.307Z,20.47
2023-05-12T23:48:05.872Z,20.40
2023-05-12T23:50:33.954Z,20.13
2023-05-12T23:53:02.050Z,20.30
2023-05-12T23:55:30.172Z,19.63
2023-05-12T23:57:58.748Z,19.40
